sensor_id;sensor_type;location;lat;lon;timestamp;pressure;altitude;pressure_sealevel;temperature;humidity
42411;BME280;28056;51.112;0.984;2023-04-28T00:04:51;100017.61;;;9.49;98.44
42411;BME280;28056;51.112;0.984;2023-04-28T00:07:18;100017.18;;;9.93;97.61
42411;BME280;28056;51.112;0.984;2023-04-28T00:09:45;100015.91;;;10.15;96.87
42411;BME280;28056;51.112;0.984;2023-04-28T00:12:12;100015.37;;;10.11;97.21
42411;BME280;28056;51.112;0.984;2023-04-28T00:14:40;100012.17;;;9.64;99.37
42411;BME280;28056;51.112;0.984;2023-04-28T00:17:07;100009.71;;;10.26;96.79
42411;BME280;28056;51.112;0.984;2023-04-28T00:19:34;100003.29;;;10.11;98.00
42411;BME280;28056;51.112;0.984;2023-04-28T00:22:02;100001.02;;;10.22;99.15
42411;BME280;28056;51.112;0.984;2023-04-28T00:24:29;99998.07;;;10.86;96.10
42411;BME280;28056;51.112;0.984;2023-04-28T00:26:57;99994.95;;;10.39;98.40
42411;BME280;28056;51.112;0.984;2023-04-28T00:29:24;99992.92;;;10.59;98.94
42411;BME280;28056;51.112;0.984;2023-04-28T00:31:51;99992.64;;;10.33;100.00
42411;BME280;28056;51.112;0.984;2023-04-28T00:34:19;99994.01;;;11.48;96.11
42411;BME280;28056;51.112;0.984;2023-04-28T00:36:46;99991.18;;;11.28;96.58
42411;BME280;28056;51.112;0.984;2023-04-28T00:39:14;99985.93;;;11.79;93.91
42411;BME280;28056;51.112;0.984;2023-04-28T00:41:41;99990.67;;;11.00;98.58
42411;BME280;28056;51.112;0.984;2023-04-28T00:44:09;99980.91;;;11.30;94.20
42411;BME280;28056;51.112;0.984;2023-04-28T00:46:37;99982.23;;;11.41;95.21
42411;BME280;28056;51.112;0.984;2023-04-28T00:49:04;99983.48;;;11.43;96.60
42411;BME280;28056;51.112;0.984;2023-04-28T00:51:31;99978.62;;;11.42;94.37
42411;BME280;28056;51.112;0.984;2023-04-28T00:53:59;99980.13;;;11.83;95.89
42411;BME280;28056;51.112;0.984;2023-04-28T00:56:28;99978.69;;;11.35;95.62
42411;BME280;28056;51.112;0.984;2023-04-28T00:58:55;99985.34;;;10.76;100.00
42411;BME280;28056;51.112;0.984;2023-04-28T01:01:23;99975.46;;;11.92;96.32
42411;BME280;28056;51.112;0.984;2023-04-28T01:03:51;99977.60;;;11.69;94.34
42411;BME280;28056;51.112;0.984;2023-04-28T01:06:19;99978.53;;;11.81;93.37
42411;BME280;28056;51.112;0.984;2023-04-28T01:08:48;99974.88;;;12.05;91.39
42411;BME280;28056;51.112;0.984;2023-04-28T01:11:15;99972.79;;;11.52;94.23
42411;BME280;28056;51.112;0.984;2023-04-28T01:13:43;99971.85;;;13.03;87.73
42411;BME280;28056;51.112;0.984;2023-04-28T01:16:11;99971.06;;;13.24;84.97
42411;BME280;28056;51.112;0.984;2023-04-28T01:18:41;99966.11;;;12.81;87.03
42411;BME280;28056;51.112;0.984;2023-04-28T01:21:12;99967.80;;;13.68;83.11
42411;BME280;28056;51.112;0.984;2023-04-28T01:23:39;99963.05;;;13.54;80.94
42411;BME280;28056;51.112;0.984;2023-04-28T01:26:07;99958.81;;;13.29;81.97
42411;BME280;28056;51.112;0.984;2023-04-28T01:28:34;99957.69;;;13.64;82.50
42411;BME280;28056;51.112;0.984;2023-04-28T01:31:01;99959.60;;;13.47;82.88
42411;BME280;28056;51.112;0.984;2023-04-28T01:33:28;99957.49;;;13.87;80.36
42411;BME280;28056;51.112;0.984;2023-04-28T01:35:57;99958.33;;;13.43;81.18
42411;BME280;28056;51.112;0.984;2023-04-28T01:38:24;99954.22;;;13.87;80.22
42411;BME280;28056;51.112;0.984;2023-04-28T01:40:54;99954.04;;;13.64;80.07
42411;BME280;28056;51.112;0.984;2023-04-28T01:43:22;99951.50;;;13.51;80.05
42411;BME280;28056;51.112;0.984;2023-04-28T01:45:49;99957.68;;;13.23;81.87
42411;BME280;28056;51.112;0.984;2023-04-28T01:48:16;99956.97;;;14.10;78.88
42411;BME280;28056;51.112;0.984;2023-04-28T01:50:43;99958.66;;;13.98;78.47
42411;BME280;28056;51.112;0.984;2023-04-28T01:53:10;99958.36;;;13.95;78.18
42411;BME280;28056;51.112;0.984;2023-04-28T01:55:38;99957.73;;;13.81;79.52
42411;BME280;28056;51.112;0.984;2023-04-28T01:58:06;99956.34;;;13.68;79.49
42411;BME280;28056;51.112;0.984;2023-04-28T02:00:34;99955.62;;;13.83;78.51
42411;BME280;28056;51.112;0.984;2023-04-28T02:03:01;99958.12;;;13.62;80.02
42411;BME280;28056;51.112;0.984;2023-04-28T02:05:29;99958.21;;;13.87;80.05
42411;BME280;28056;51.112;0.984;2023-04-28T02:07:56;99957.59;;;13.76;79.32
42411;BME280;28056;51.112;0.984;2023-04-28T02:10:23;99954.98;;;13.58;80.58
42411;BME280;28056;51.112;0.984;2023-04-28T02:12:51;99956.75;;;13.60;80.74
42411;BME280;28056;51.112;0.984;2023-04-28T02:15:18;99956.61;;;13.54;80.30
42411;BME280;28056;51.112;0.984;2023-04-28T02:17:46;99954.46;;;13.87;80.92
42411;BME280;28056;51.112;0.984;2023-04-28T02:20:14;99953.91;;;13.66;79.43
42411;BME280;28056;51.112;0.984;2023-04-28T02:22:41;99959.45;;;12.61;84.94
42411;BME280;28056;51.112;0.984;2023-04-28T02:25:08;99957.15;;;13.25;84.06
42411;BME280;28056;51.112;0.984;2023-04-28T02:27:36;99956.00;;;13.73;81.81
42411;BME280;28056;51.112;0.984;2023-04-28T02:30:05;99959.11;;;13.45;82.86
42411;BME280;28056;51.112;0.984;2023-04-28T02:32:33;99962.63;;;13.12;84.63
42411;BME280;28056;51.112;0.984;2023-04-28T02:35:00;99958.67;;;13.20;84.02
42411;BME280;28056;51.112;0.984;2023-04-28T02:37:28;99959.17;;;12.92;85.97
42411;BME280;28056;51.112;0.984;2023-04-28T02:39:56;99956.70;;;12.92;85.70
42411;BME280;28056;51.112;0.984;2023-04-28T02:42:23;99950.70;;;13.52;84.22
42411;BME280;28056;51.112;0.984;2023-04-28T02:44:51;99945.02;;;12.40;87.64
42411;BME280;28056;51.112;0.984;2023-04-28T02:47:18;99946.46;;;13.25;83.55
42411;BME280;28056;51.112;0.984;2023-04-28T02:49:46;99940.57;;;13.42;83.33
42411;BME280;28056;51.112;0.984;2023-04-28T02:52:14;99940.76;;;13.36;82.57
42411;BME280;28056;51.112;0.984;2023-04-28T02:54:41;99943.13;;;13.16;84.12
42411;BME280;28056;51.112;0.984;2023-04-28T02:57:08;99938.01;;;13.73;82.34
42411;BME280;28056;51.112;0.984;2023-04-28T02:59:36;99941.94;;;12.57;84.56
42411;BME280;28056;51.112;0.984;2023-04-28T03:02:03;99940.99;;;13.01;86.80
42411;BME280;28056;51.112;0.984;2023-04-28T03:04:35;99941.53;;;12.95;85.26
42411;BME280;28056;51.112;0.984;2023-04-28T03:07:02;99940.08;;;12.46;88.67
42411;BME280;28056;51.112;0.984;2023-04-28T03:09:30;99937.86;;;12.76;87.30
42411;BME280;28056;51.112;0.984;2023-04-28T03:11:57;99937.57;;;12.87;85.37
42411;BME280;28056;51.112;0.984;2023-04-28T03:14:25;99933.17;;;12.50;87.61
42411;BME280;28056;51.112;0.984;2023-04-28T03:16:52;99928.35;;;12.92;85.94
42411;BME280;28056;51.112;0.984;2023-04-28T03:19:19;99929.64;;;12.67;88.57
42411;BME280;28056;51.112;0.984;2023-04-28T03:21:47;99929.69;;;13.01;85.87
42411;BME280;28056;51.112;0.984;2023-04-28T03:24:14;99926.90;;;12.55;87.32
42411;BME280;28056;51.112;0.984;2023-04-28T03:26:41;99934.92;;;11.91;91.34
42411;BME280;28056;51.112;0.984;2023-04-28T03:29:09;99933.56;;;12.54;91.06
42411;BME280;28056;51.112;0.984;2023-04-28T03:31:37;99932.26;;;12.23;93.41
42411;BME280;28056;51.112;0.984;2023-04-28T03:34:04;99932.45;;;12.76;90.67
42411;BME280;28056;51.112;0.984;2023-04-28T03:36:32;99934.06;;;12.39;91.09
42411;BME280;28056;51.112;0.984;2023-04-28T03:39:00;99934.84;;;11.98;91.96
42411;BME280;28056;51.112;0.984;2023-04-28T03:41:27;99938.08;;;12.45;90.52
42411;BME280;28056;51.112;0.984;2023-04-28T03:43:54;99940.61;;;12.11;91.49
42411;BME280;28056;51.112;0.984;2023-04-28T03:46:22;99941.59;;;11.94;93.89
42411;BME280;28056;51.112;0.984;2023-04-28T03:48:49;99947.00;;;11.84;94.00
42411;BME280;28056;51.112;0.984;2023-04-28T03:51:17;99947.37;;;11.26;94.79
42411;BME280;28056;51.112;0.984;2023-04-28T03:53:43;99943.82;;;10.87;100.00
42411;BME280;28056;51.112;0.984;2023-04-28T03:56:10;99948.21;;;11.40;97.59
42411;BME280;28056;51.112;0.984;2023-04-28T03:58:38;99940.99;;;11.33;97.96
42411;BME280;28056;51.112;0.984;2023-04-28T04:01:06;99951.45;;;10.82;100.00
42411;BME280;28056;51.112;0.984;2023-04-28T04:03:34;99951.36;;;10.17;100.00
42411;BME280;28056;51.112;0.984;2023-04-28T04:06:02;99955.31;;;9.24;100.00
42411;BME280;28056;51.112;0.984;2023-04-28T04:08:29;99959.09;;;10.75;100.00
42411;BME280;28056;51.112;0.984;2023-04-28T04:10:57;99962.33;;;9.49;100.00
42411;BME280;28056;51.112;0.984;2023-04-28T04:13:24;99957.69;;;10.26;100.00
42411;BME280;28056;51.112;0.984;2023-04-28T04:15:52;99958.88;;;9.92;100.00
42411;BME280;28056;51.112;0.984;2023-04-28T04:18:19;99960.40;;;9.85;100.00
42411;BME280;28056;51.112;0.984;2023-04-28T04:20:47;99954.67;;;9.90;100.00
42411;BME280;28056;51.112;0.984;2023-04-28T04:23:15;99952.67;;;10.61;100.00
42411;BME280;28056;51.112;0.984;2023-04-28T04:25:42;99955.20;;;9.04;100.00
42411;BME280;28056;51.112;0.984;2023-04-28T04:28:10;99959.03;;;9.67;100.00
42411;BME280;28056;51.112;0.984;2023-04-28T04:30:37;99967.37;;;10.18;100.00
42411;BME280;28056;51.112;0.984;2023-04-28T04:33:04;99969.85;;;9.26;100.00
42411;BME280;28056;51.112;0.984;2023-04-28T04:35:31;99975.01;;;9.33;100.00
42411;BME280;28056;51.112;0.984;2023-04-28T04:37:59;99981.44;;;8.79;100.00
42411;BME280;28056;51.112;0.984;2023-04-28T04:40:27;99979.31;;;9.28;100.00
42411;BME280;28056;51.112;0.984;2023-04-28T04:42:54;99979.16;;;10.22;100.00
42411;BME280;28056;51.112;0.984;2023-04-28T04:45:21;99978.12;;;9.66;100.00
42411;BME280;28056;51.112;0.984;2023-04-28T04:47:48;99982.25;;;10.65;100.00
42411;BME280;28056;51.112;0.984;2023-04-28T04:50:15;99979.20;;;9.69;100.00
42411;BME280;28056;51.112;0.984;2023-04-28T04:52:43;99983.38;;;9.78;100.00
42411;BME280;28056;51.112;0.984;2023-04-28T04:55:11;99986.93;;;9.29;100.00
42411;BME280;28056;51.112;0.984;2023-04-28T04:57:38;99985.43;;;10.85;100.00
42411;BME280;28056;51.112;0.984;2023-04-28T05:00:07;99983.87;;;9.82;100.00
42411;BME280;28056;51.112;0.984;2023-04-28T05:02:35;99986.77;;;10.57;100.00
42411;BME280;28056;51.112;0.984;2023-04-28T05:05:03;99977.49;;;9.92;100.00
42411;BME280;28056;51.112;0.984;2023-04-28T05:07:30;99981.64;;;9.51;100.00
42411;BME280;28056;51.112;0.984;2023-04-28T05:09:57;99976.71;;;9.95;100.00
42411;BME280;28056;51.112;0.984;2023-04-28T05:15:34;99983.29;;;9.28;100.00
42411;BME280;28056;51.112;0.984;2023-04-28T05:18:02;99982.99;;;9.18;100.00
42411;BME280;28056;51.112;0.984;2023-04-28T05:20:29;99987.19;;;10.41;100.00
42411;BME280;28056;51.112;0.984;2023-04-28T05:22:57;99972.58;;;9.92;100.00
42411;BME280;28056;51.112;0.984;2023-04-28T05:25:25;99979.52;;;10.88;100.00
42411;BME280;28056;51.112;0.984;2023-04-28T05:27:52;99978.86;;;10.63;100.00
42411;BME280;28056;51.112;0.984;2023-04-28T05:30:20;99982.91;;;10.89;100.00
42411;BME280;28056;51.112;0.984;2023-04-28T05:32:47;99987.12;;;10.77;100.00
42411;BME280;28056;51.112;0.984;2023-04-28T05:35:15;99986.66;;;10.72;100.00
42411;BME280;28056;51.112;0.984;2023-04-28T05:37:43;99989.27;;;10.11;100.00
42411;BME280;28056;51.112;0.984;2023-04-28T05:40:10;99994.46;;;10.42;100.00
42411;BME280;28056;51.112;0.984;2023-04-28T05:42:38;99995.61;;;9.39;100.00
42411;BME280;28056;51.112;0.984;2023-04-28T05:45:07;99998.22;;;9.74;100.00
42411;BME280;28056;51.112;0.984;2023-04-28T05:47:34;99997.04;;;10.55;100.00
42411;BME280;28056;51.112;0.984;2023-04-28T05:50:03;99997.71;;;10.10;100.00
42411;BME280;28056;51.112;0.984;2023-04-28T05:52:30;100003.95;;;10.64;100.00
42411;BME280;28056;51.112;0.984;2023-04-28T05:54:58;100003.80;;;8.84;100.00
42411;BME280;28056;51.112;0.984;2023-04-28T05:57:25;100009.49;;;9.56;100.00
42411;BME280;28056;51.112;0.984;2023-04-28T05:59:52;100013.31;;;9.57;100.00
42411;BME280;28056;51.112;0.984;2023-04-28T06:02:20;100011.97;;;9.91;100.00
42411;BME280;28056;51.112;0.984;2023-04-28T06:04:48;100008.19;;;10.70;100.00
42411;BME280;28056;51.112;0.984;2023-04-28T06:07:15;100003.22;;;10.10;100.00
42411;BME280;28056;51.112;0.984;2023-04-28T06:09:42;100008.25;;;10.65;100.00
42411;BME280;28056;51.112;0.984;2023-04-28T06:12:11;100009.38;;;9.88;100.00
42411;BME280;28056;51.112;0.984;2023-04-28T06:14:38;100014.92;;;11.07;100.00
42411;BME280;28056;51.112;0.984;2023-04-28T06:17:05;100015.80;;;11.06;100.00
42411;BME280;28056;51.112;0.984;2023-04-28T06:19:32;100020.68;;;10.66;100.00
42411;BME280;28056;51.112;0.984;2023-04-28T06:21:59;100026.08;;;11.15;98.87
42411;BME280;28056;51.112;0.984;2023-04-28T06:24:27;100028.32;;;11.46;99.65
42411;BME280;28056;51.112;0.984;2023-04-28T06:26:55;100028.42;;;10.62;100.00
42411;BME280;28056;51.112;0.984;2023-04-28T06:29:23;100033.67;;;10.16;100.00
42411;BME280;28056;51.112;0.984;2023-04-28T06:31:50;100032.54;;;10.75;100.00
42411;BME280;28056;51.112;0.984;2023-04-28T06:34:18;100033.65;;;10.21;100.00
42411;BME280;28056;51.112;0.984;2023-04-28T06:36:46;100033.16;;;10.11;100.00
42411;BME280;28056;51.112;0.984;2023-04-28T06:39:14;100036.40;;;10.57;100.00
42411;BME280;28056;51.112;0.984;2023-04-28T06:41:41;100036.24;;;9.76;100.00
42411;BME280;28056;51.112;0.984;2023-04-28T06:44:08;100035.76;;;10.75;100.00
42411;BME280;28056;51.112;0.984;2023-04-28T06:46:36;100038.17;;;10.20;100.00
42411;BME280;28056;51.112;0.984;2023-04-28T06:49:03;100035.85;;;11.10;100.00
42411;BME280;28056;51.112;0.984;2023-04-28T06:51:31;100038.61;;;10.00;100.00
42411;BME280;28056;51.112;0.984;2023-04-28T06:53:58;100043.60;;;10.26;100.00
42411;BME280;28056;51.112;0.984;2023-04-28T06:56:26;100048.42;;;11.28;100.00
42411;BME280;28056;51.112;0.984;2023-04-28T06:58:54;100050.28;;;9.84;100.00
42411;BME280;28056;51.112;0.984;2023-04-28T07:01:22;100056.24;;;10.62;100.00
42411;BME280;28056;51.112;0.984;2023-04-28T07:03:49;100056.13;;;10.33;100.00
42411;BME280;28056;51.112;0.984;2023-04-28T07:06:16;100056.74;;;9.93;100.00
42411;BME280;28056;51.112;0.984;2023-04-28T07:08:44;100060.55;;;9.36;100.00
42411;BME280;28056;51.112;0.984;2023-04-28T07:11:11;100065.04;;;9.97;100.00
42411;BME280;28056;51.112;0.984;2023-04-28T07:13:38;100063.25;;;9.94;100.00
42411;BME280;28056;51.112;0.984;2023-04-28T07:16:06;100065.59;;;10.25;100.00
42411;BME280;28056;51.112;0.984;2023-04-28T07:18:33;100067.53;;;10.93;100.00
42411;BME280;28056;51.112;0.984;2023-04-28T07:21:01;100070.00;;;11.43;100.00
42411;BME280;28056;51.112;0.984;2023-04-28T07:23:28;100072.45;;;11.33;100.00
42411;BME280;28056;51.112;0.984;2023-04-28T07:25:56;100072.31;;;10.66;100.00
42411;BME280;28056;51.112;0.984;2023-04-28T07:28:24;100074.47;;;10.47;100.00
42411;BME280;28056;51.112;0.984;2023-04-28T07:30:52;100081.45;;;10.49;100.00
42411;BME280;28056;51.112;0.984;2023-04-28T07:33:20;100078.82;;;10.93;100.00
42411;BME280;28056;51.112;0.984;2023-04-28T07:35:47;100082.96;;;10.79;100.00
42411;BME280;28056;51.112;0.984;2023-04-28T07:38:15;100085.02;;;11.24;100.00
42411;BME280;28056;51.112;0.984;2023-04-28T07:40:43;100084.62;;;12.48;97.67
42411;BME280;28056;51.112;0.984;2023-04-28T07:43:10;100089.54;;;11.02;100.00
42411;BME280;28056;51.112;0.984;2023-04-28T07:45:39;100092.60;;;11.69;99.08
42411;BME280;28056;51.112;0.984;2023-04-28T07:48:06;100095.97;;;10.80;100.00
42411;BME280;28056;51.112;0.984;2023-04-28T07:50:33;100095.99;;;12.05;100.00
42411;BME280;28056;51.112;0.984;2023-04-28T07:53:01;100105.67;;;12.32;97.58
42411;BME280;28056;51.112;0.984;2023-04-28T07:55:29;100107.75;;;12.03;97.27
42411;BME280;28056;51.112;0.984;2023-04-28T07:57:57;100107.83;;;12.36;96.79
42411;BME280;28056;51.112;0.984;2023-04-28T08:00:24;100118.63;;;11.85;98.08
42411;BME280;28056;51.112;0.984;2023-04-28T08:02:52;100116.20;;;12.55;92.52
42411;BME280;28056;51.112;0.984;2023-04-28T08:05:20;100118.92;;;12.36;91.22
42411;BME280;28056;51.112;0.984;2023-04-28T08:07:47;100127.38;;;11.82;96.59
42411;BME280;28056;51.112;0.984;2023-04-28T08:10:15;100128.35;;;11.75;95.25
42411;BME280;28056;51.112;0.984;2023-04-28T08:12:43;100131.87;;;12.51;92.95
42411;BME280;28056;51.112;0.984;2023-04-28T08:15:11;100133.49;;;12.43;94.94
42411;BME280;28056;51.112;0.984;2023-04-28T08:17:38;100131.41;;;12.24;91.74
42411;BME280;28056;51.112;0.984;2023-04-28T08:20:07;100137.67;;;12.17;93.31
42411;BME280;28056;51.112;0.984;2023-04-28T08:22:34;100136.39;;;11.88;94.88
42411;BME280;28056;51.112;0.984;2023-04-28T08:25:02;100135.10;;;13.15;90.05
42411;BME280;28056;51.112;0.984;2023-04-28T08:27:30;100139.48;;;11.49;94.93
42411;BME280;28056;51.112;0.984;2023-04-28T08:29:57;100140.04;;;11.96;95.09
42411;BME280;28056;51.112;0.984;2023-04-28T08:32:24;100139.78;;;12.47;92.44
42411;BME280;28056;51.112;0.984;2023-04-28T08:34:52;100142.90;;;11.79;94.57
42411;BME280;28056;51.112;0.984;2023-04-28T08:37:19;100139.87;;;12.35;92.65
42411;BME280;28056;51.112;0.984;2023-04-28T08:39:47;100147.63;;;11.77;96.79
42411;BME280;28056;51.112;0.984;2023-04-28T08:42:15;100146.12;;;12.24;95.44
42411;BME280;28056;51.112;0.984;2023-04-28T08:44:44;100146.55;;;12.47;93.74
42411;BME280;28056;51.112;0.984;2023-04-28T08:47:13;100141.69;;;12.52;92.16
42411;BME280;28056;51.112;0.984;2023-04-28T08:49:41;100143.28;;;13.32;88.94
42411;BME280;28056;51.112;0.984;2023-04-28T08:52:11;100146.11;;;12.33;91.91
42411;BME280;28056;51.112;0.984;2023-04-28T08:54:39;100153.04;;;12.48;92.15
42411;BME280;28056;51.112;0.984;2023-04-28T08:57:08;100148.27;;;12.94;91.14
42411;BME280;28056;51.112;0.984;2023-04-28T08:59:39;100154.43;;;13.30;89.96
42411;BME280;28056;51.112;0.984;2023-04-28T09:02:07;100150.85;;;12.72;91.27
42411;BME280;28056;51.112;0.984;2023-04-28T09:04:35;100153.76;;;12.01;93.68
42411;BME280;28056;51.112;0.984;2023-04-28T09:07:03;100154.74;;;12.06;95.32
42411;BME280;28056;51.112;0.984;2023-04-28T09:09:30;100149.90;;;12.88;92.74
42411;BME280;28056;51.112;0.984;2023-04-28T09:12:00;100152.60;;;12.98;90.27
42411;BME280;28056;51.112;0.984;2023-04-28T09:14:28;100156.13;;;12.43;92.55
42411;BME280;28056;51.112;0.984;2023-04-28T09:16:57;100163.24;;;12.21;92.54
42411;BME280;28056;51.112;0.984;2023-04-28T09:19:32;100158.68;;;12.90;90.80
42411;BME280;28056;51.112;0.984;2023-04-28T09:22:00;100164.19;;;12.23;96.84
42411;BME280;28056;51.112;0.984;2023-04-28T09:24:29;100159.66;;;12.97;96.06
42411;BME280;28056;51.112;0.984;2023-04-28T09:26:57;100157.59;;;13.66;90.08
42411;BME280;28056;51.112;0.984;2023-04-28T09:29:25;100161.33;;;12.87;91.29
42411;BME280;28056;51.112;0.984;2023-04-28T09:31:53;100156.40;;;13.60;84.86
42411;BME280;28056;51.112;0.984;2023-04-28T09:34:20;100161.29;;;13.23;86.77
42411;BME280;28056;51.112;0.984;2023-04-28T09:36:48;100164.51;;;13.18;90.70
42411;BME280;28056;51.112;0.984;2023-04-28T09:39:28;100169.88;;;13.26;89.73
42411;BME280;28056;51.112;0.984;2023-04-28T09:41:56;100170.57;;;13.18;87.54
42411;BME280;28056;51.112;0.984;2023-04-28T09:44:34;100171.25;;;13.16;88.27
42411;BME280;28056;51.112;0.984;2023-04-28T09:47:19;100182.53;;;11.51;95.92
42411;BME280;28056;51.112;0.984;2023-04-28T09:49:53;100182.55;;;11.93;93.11
42411;BME280;28056;51.112;0.984;2023-04-28T09:52:20;100190.95;;;11.77;98.18
42411;BME280;28056;51.112;0.984;2023-04-28T09:54:50;100190.14;;;11.44;100.00
42411;BME280;28056;51.112;0.984;2023-04-28T09:57:18;100197.43;;;11.27;97.78
42411;BME280;28056;51.112;0.984;2023-04-28T09:59:48;100200.53;;;11.10;98.53
42411;BME280;28056;51.112;0.984;2023-04-28T10:02:18;100199.91;;;11.52;98.51
42411;BME280;28056;51.112;0.984;2023-04-28T10:04:47;100204.99;;;11.71;95.97
42411;BME280;28056;51.112;0.984;2023-04-28T10:07:16;100212.26;;;11.00;100.00
42411;BME280;28056;51.112;0.984;2023-04-28T10:09:44;100210.59;;;11.03;99.18
42411;BME280;28056;51.112;0.984;2023-04-28T10:12:13;100209.32;;;11.58;97.12
42411;BME280;28056;51.112;0.984;2023-04-28T10:14:40;100215.91;;;12.41;94.49
42411;BME280;28056;51.112;0.984;2023-04-28T10:17:08;100216.49;;;12.22;92.75
42411;BME280;28056;51.112;0.984;2023-04-28T10:19:35;100218.95;;;11.64;96.99
42411;BME280;28056;51.112;0.984;2023-04-28T10:22:18;100220.06;;;11.61;97.38
42411;BME280;28056;51.112;0.984;2023-04-28T10:25:05;100218.37;;;11.91;95.70
42411;BME280;28056;51.112;0.984;2023-04-28T10:27:36;100210.69;;;12.64;91.34
42411;BME280;28056;51.112;0.984;2023-04-28T10:30:12;100218.25;;;11.62;92.47
42411;BME280;28056;51.112;0.984;2023-04-28T10:32:41;100227.04;;;11.22;98.89
42411;BME280;28056;51.112;0.984;2023-04-28T10:35:41;100227.42;;;11.07;96.55
42411;BME280;28056;51.112;0.984;2023-04-28T10:38:10;100222.12;;;11.16;97.10
42411;BME280;28056;51.112;0.984;2023-04-28T10:40:39;100226.10;;;12.93;88.76
42411;BME280;28056;51.112;0.984;2023-04-28T10:43:08;100223.38;;;12.54;89.01
42411;BME280;28056;51.112;0.984;2023-04-28T10:46:09;100228.47;;;12.60;87.93
42411;BME280;28056;51.112;0.984;2023-04-28T10:49:09;100224.92;;;13.15;87.09
42411;BME280;28056;51.112;0.984;2023-04-28T10:51:36;100226.68;;;12.33;89.61
42411;BME280;28056;51.112;0.984;2023-04-28T10:54:19;100224.58;;;12.19;89.30
42411;BME280;28056;51.112;0.984;2023-04-28T10:57:19;100229.61;;;12.30;91.26
42411;BME280;28056;51.112;0.984;2023-04-28T10:59:48;100233.15;;;11.91;94.28
42411;BME280;28056;51.112;0.984;2023-04-28T11:02:47;100228.73;;;13.76;86.67
42411;BME280;28056;51.112;0.984;2023-04-28T11:05:16;100235.08;;;13.61;86.77
42411;BME280;28056;51.112;0.984;2023-04-28T11:08:34;100223.73;;;13.75;83.63
42411;BME280;28056;51.112;0.984;2023-04-28T11:11:19;100229.16;;;12.79;87.12
42411;BME280;28056;51.112;0.984;2023-04-28T11:13:48;100232.76;;;12.69;88.16
42411;BME280;28056;51.112;0.984;2023-04-28T11:16:17;100237.19;;;11.90;93.24
42411;BME280;28056;51.112;0.984;2023-04-28T11:18:50;100233.65;;;11.56;94.31
42411;BME280;28056;51.112;0.984;2023-04-28T11:21:18;100233.29;;;11.53;96.20
42411;BME280;28056;51.112;0.984;2023-04-28T11:23:45;100230.07;;;11.78;98.12
42411;BME280;28056;51.112;0.984;2023-04-28T11:26:13;100227.73;;;11.81;93.54
42411;BME280;28056;51.112;0.984;2023-04-28T11:28:47;100228.64;;;12.50;90.68
42411;BME280;28056;51.112;0.984;2023-04-28T11:31:16;100224.47;;;12.45;91.87
42411;BME280;28056;51.112;0.984;2023-04-28T11:33:45;100222.15;;;13.12;88.63
42411;BME280;28056;51.112;0.984;2023-04-28T11:36:31;100228.52;;;12.68;86.38
42411;BME280;28056;51.112;0.984;2023-04-28T11:38:59;100228.86;;;13.47;84.24
42411;BME280;28056;51.112;0.984;2023-04-28T11:41:27;100240.23;;;12.69;90.09
42411;BME280;28056;51.112;0.984;2023-04-28T11:43:54;100232.66;;;13.41;88.07
42411;BME280;28056;51.112;0.984;2023-04-28T11:46:23;100235.58;;;12.31;90.74
42411;BME280;28056;51.112;0.984;2023-04-28T11:49:07;100240.34;;;12.19;93.89
42411;BME280;28056;51.112;0.984;2023-04-28T11:51:35;100242.50;;;12.06;95.16
42411;BME280;28056;51.112;0.984;2023-04-28T11:54:04;100246.49;;;12.11;92.84
42411;BME280;28056;51.112;0.984;2023-04-28T11:56:36;100249.32;;;12.06;92.09
42411;BME280;28056;51.112;0.984;2023-04-28T11:59:05;100253.31;;;12.94;87.60
42411;BME280;28056;51.112;0.984;2023-04-28T12:01:34;100251.75;;;12.01;93.43
42411;BME280;28056;51.112;0.984;2023-04-28T12:04:02;100252.30;;;12.63;91.45
42411;BME280;28056;51.112;0.984;2023-04-28T12:06:29;100252.57;;;12.76;90.84
42411;BME280;28056;51.112;0.984;2023-04-28T12:08:57;100249.50;;;13.53;89.73
42411;BME280;28056;51.112;0.984;2023-04-28T12:11:24;100257.38;;;13.11;87.04
42411;BME280;28056;51.112;0.984;2023-04-28T12:14:07;100257.45;;;12.52;89.09
42411;BME280;28056;51.112;0.984;2023-04-28T12:16:38;100256.26;;;13.86;83.52
42411;BME280;28056;51.112;0.984;2023-04-28T12:19:05;100259.24;;;13.87;85.47
42411;BME280;28056;51.112;0.984;2023-04-28T12:21:33;100257.65;;;13.36;85.89
42411;BME280;28056;51.112;0.984;2023-04-28T12:24:11;100263.74;;;12.22;91.31
42411;BME280;28056;51.112;0.984;2023-04-28T12:26:39;100264.67;;;11.98;93.24
42411;BME280;28056;51.112;0.984;2023-04-28T12:29:06;100272.00;;;12.27;95.34
42411;BME280;28056;51.112;0.984;2023-04-28T12:31:47;100271.67;;;11.76;96.10
42411;BME280;28056;51.112;0.984;2023-04-28T12:34:14;100278.85;;;12.65;96.20
42411;BME280;28056;51.112;0.984;2023-04-28T12:36:42;100279.97;;;11.88;97.05
42411;BME280;28056;51.112;0.984;2023-04-28T12:39:13;100278.44;;;13.32;91.58
42411;BME280;28056;51.112;0.984;2023-04-28T12:41:40;100278.67;;;13.52;89.23
42411;BME280;28056;51.112;0.984;2023-04-28T12:44:08;100275.87;;;11.85;94.22
42411;BME280;28056;51.112;0.984;2023-04-28T12:46:35;100280.35;;;13.27;91.72
42411;BME280;28056;51.112;0.984;2023-04-28T12:49:03;100282.30;;;12.77;93.23
42411;BME280;28056;51.112;0.984;2023-04-28T12:51:31;100286.45;;;12.74;93.06
42411;BME280;28056;51.112;0.984;2023-04-28T12:53:58;100287.83;;;12.98;90.07
42411;BME280;28056;51.112;0.984;2023-04-28T12:56:27;100288.57;;;13.10;88.44
42411;BME280;28056;51.112;0.984;2023-04-28T12:58:55;100293.29;;;12.85;93.91
42411;BME280;28056;51.112;0.984;2023-04-28T13:01:22;100295.04;;;12.19;90.18
42411;BME280;28056;51.112;0.984;2023-04-28T13:03:50;100300.08;;;11.77;92.75
42411;BME280;28056;51.112;0.984;2023-04-28T13:06:18;100286.56;;;11.86;92.97
42411;BME280;28056;51.112;0.984;2023-04-28T13:08:45;100296.57;;;11.79;94.35